Time;durP1;ratioP1;P1;durP2;ratioP2;P2;SDS_P1;SDS_P2;PMS_P1;PMS_P2;Temp;Humidity;BMP_temperature;BMP_pressure;BME280_temperature;BME280_humidity;BME280_pressure;Samples;Min_cycle;Max_cycle;Signal;HPM_P1;HPM_P2
2023/12/05 05:02:51;;;;;;;11.10;6.80;;;-0.40;99.90;;;;;;4893058;29;20241;-73
2023/12/05 05:05:17;;;;;;;14.45;9.25;;;-0.40;99.90;;;;;;4898651;29;20227;-72
2023/12/05 05:07:44;;;;;;;17.63;7.63;;;-0.40;99.90;;;;;;4896434;29;20215;-73
2023/12/05 05:10:11;;;;;;;11.32;8.45;;;-0.40;99.90;;;;;;4900226;29;20215;-73
2023/12/05 05:12:37;;;;;;;17.42;6.63;;;-0.40;99.90;;;;;;4907731;29;20207;-73
2023/12/05 05:15:05;;;;;;;12.95;8.75;;;-0.40;99.90;;;;;;4900505;29;20658;-72
2023/12/05 05:17:32;;;;;;;8.25;4.28;;;-0.40;99.90;;;;;;4903635;29;20526;-73
2023/12/05 05:20:00;;;;;;;5.35;4.90;;;-0.40;99.90;;;;;;4902693;29;20212;-73
2023/12/05 05:22:27;;;;;;;14.40;9.57;;;-0.40;99.90;;;;;;4904164;29;20226;-73
2023/12/05 05:24:54;;;;;;;6.28;5.40;;;-0.40;99.90;;;;;;4909434;29;20619;-73
2023/12/05 05:27:21;;;;;;;15.75;6.97;;;-0.40;99.90;;;;;;4906799;29;20220;-73
2023/12/05 05:29:47;;;;;;;13.27;9.48;;;-0.40;99.90;;;;;;4903652;29;20238;-73
2023/12/05 05:32:14;;;;;;;13.98;9.52;;;-0.40;99.90;;;;;;4897966;29;20767;-73
2023/12/05 05:34:41;;;;;;;15.05;7.22;;;-0.40;99.90;;;;;;4898375;29;20663;-72
2023/12/05 05:37:09;;;;;;;9.98;6.88;;;-0.40;99.90;;;;;;4896915;29;20576;-72
2023/12/05 05:39:35;;;;;;;19.38;8.95;;;-0.40;99.90;;;;;;4905822;29;20212;-73
2023/12/05 05:42:01;;;;;;;11.40;7.20;;;-0.40;99.90;;;;;;4907693;29;20235;-72
2023/12/05 05:44:28;;;;;;;11.13;7.37;;;-0.40;99.90;;;;;;4906401;29;20202;-72
2023/12/05 05:46:55;;;;;;;8.98;8.18;;;-0.40;99.90;;;;;;4900997;29;20238;-72
2023/12/05 05:49:21;;;;;;;11.93;10.85;;;-0.40;99.90;;;;;;4906308;29;20218;-73
2023/12/05 05:51:48;;;;;;;16.00;11.13;;;-0.40;99.90;;;;;;4906117;29;20414;-73
2023/12/05 05:54:16;;;;;;;8.25;7.30;;;-0.40;99.90;;;;;;4905518;29;20212;-73
2023/12/05 05:56:43;;;;;;;10.25;8.77;;;-0.40;99.90;;;;;;4901766;29;20578;-72
2023/12/05 05:59:09;;;;;;;16.65;8.90;;;-0.40;99.90;;;;;;4898358;29;20211;-73
2023/12/05 06:01:36;;;;;;;7.05;5.55;;;-0.40;99.90;;;;;;4908887;29;20281;-73
2023/12/05 06:04:03;;;;;;;22.80;9.07;;;-0.50;99.90;;;;;;4902245;29;20215;-72
2023/12/05 06:06:30;;;;;;;9.02;7.70;;;-0.40;99.90;;;;;;4905121;29;20626;-73
2023/12/05 06:08:55;;;;;;;12.95;8.68;;;-0.50;99.90;;;;;;4905997;29;20698;-73
2023/12/05 06:11:24;;;;;;;15.27;11.93;;;-0.50;99.90;;;;;;4904627;29;20222;-73
2023/12/05 06:13:50;;;;;;;11.07;9.77;;;-0.50;99.90;;;;;;4905331;29;20671;-73
2023/12/05 06:16:17;;;;;;;21.70;10.55;;;-0.40;99.90;;;;;;4902613;29;20204;-73
2023/12/05 06:18:44;;;;;;;11.38;9.52;;;-0.40;99.90;;;;;;4911392;29;20214;-73
2023/12/05 06:21:10;;;;;;;11.55;10.40;;;-0.40;99.90;;;;;;4905499;29;20231;-73
2023/12/05 06:23:38;;;;;;;25.50;12.43;;;-0.40;99.90;;;;;;4910360;29;20214;-72
2023/12/05 06:26:05;;;;;;;11.70;5.82;;;-0.40;99.90;;;;;;4893595;29;20718;-73
2023/12/05 06:28:33;;;;;;;6.85;6.10;;;-0.40;99.90;;;;;;4908507;29;20220;-73
2023/12/05 06:31:00;;;;;;;21.73;12.98;;;-0.50;99.90;;;;;;4902908;29;20585;-72
2023/12/05 06:33:27;;;;;;;17.63;8.85;;;-0.50;99.90;;;;;;4899420;29;20249;-71
2023/12/05 06:35:54;;;;;;;22.23;10.57;;;-0.50;99.90;;;;;;4898551;29;20211;-70
2023/12/05 06:38:20;;;;;;;12.85;8.35;;;-0.50;99.90;;;;;;4903729;29;20225;-69
2023/12/05 06:40:47;;;;;;;18.95;12.18;;;-0.50;99.90;;;;;;4900082;29;20235;-69
2023/12/05 06:43:14;;;;;;;13.30;6.93;;;-0.50;99.90;;;;;;4900537;29;20212;-69
2023/12/05 06:45:42;;;;;;;9.10;6.10;;;-0.50;99.90;;;;;;4898218;29;20640;-69
2023/12/05 06:48:08;;;;;;;15.05;9.85;;;-0.40;99.90;;;;;;4889803;29;20208;-69
2023/12/05 06:50:35;;;;;;;12.10;6.63;;;-0.40;99.90;;;;;;4899133;29;20234;-70
2023/12/05 06:53:02;;;;;;;12.50;7.47;;;-0.50;99.90;;;;;;4906869;29;20536;-70
2023/12/05 06:55:29;;;;;;;14.43;8.85;;;-0.50;99.90;;;;;;4891943;29;20202;-70
2023/12/05 06:57:55;;;;;;;5.40;4.97;;;-0.40;99.90;;;;;;4905146;29;20227;-71
2023/12/05 07:00:22;;;;;;;12.00;8.60;;;-0.40;99.90;;;;;;4904296;29;20574;-71
2023/12/05 07:02:50;;;;;;;18.92;8.90;;;-0.40;99.90;;;;;;4901254;29;20294;-70
2023/12/05 07:05:17;;;;;;;12.65;8.70;;;-0.40;99.90;;;;;;4902105;29;20227;-71
2023/12/05 07:07:44;;;;;;;12.38;11.10;;;-0.40;99.90;;;;;;4890106;29;20212;-70
2023/12/05 07:10:10;;;;;;;4.50;3.38;;;-0.40;99.90;;;;;;4887418;29;20619;-70
2023/12/05 07:12:37;;;;;;;14.10;7.93;;;-0.40;99.90;;;;;;4898246;29;20210;-70
2023/12/05 07:15:05;;;;;;;15.38;10.27;;;-0.40;99.90;;;;;;4902434;29;20211;-71
2023/12/05 07:17:31;;;;;;;14.98;8.27;;;-0.40;99.90;;;;;;4911498;29;20218;-70
2023/12/05 07:19:59;;;;;;;15.60;10.27;;;-0.40;99.90;;;;;;4910177;29;20289;-70
2023/12/05 07:22:26;;;;;;;13.23;5.38;;;-0.40;99.90;;;;;;4899850;29;20234;-70
2023/12/05 07:24:53;;;;;;;25.40;11.20;;;-0.40;99.90;;;;;;4899944;29;20222;-71
2023/12/05 07:27:19;;;;;;;11.70;6.95;;;-0.40;99.90;;;;;;4908388;29;20207;-70
2023/12/05 07:29:46;;;;;;;23.80;9.70;;;-0.40;99.90;;;;;;4907912;29;20217;-71
2023/12/05 07:32:13;;;;;;;12.00;8.52;;;-0.40;99.90;;;;;;4904766;29;20340;-72
2023/12/05 07:34:39;;;;;;;16.75;9.80;;;-0.40;99.90;;;;;;4908029;29;20678;-71
2023/12/05 07:37:07;;;;;;;13.80;8.50;;;-0.30;99.90;;;;;;4906797;29;20211;-70
2023/12/05 07:39:34;;;;;;;14.07;8.52;;;-0.30;99.90;;;;;;4904314;29;20230;-70
2023/12/05 07:42:01;;;;;;;15.23;10.88;;;-0.30;99.90;;;;;;4908662;29;20254;-70
2023/12/05 07:44:28;;;;;;;13.35;8.00;;;-0.30;99.90;;;;;;4900302;29;20202;-70
2023/12/05 07:46:55;;;;;;;8.40;7.47;;;-0.30;99.90;;;;;;4907893;29;20697;-70
2023/12/05 07:49:22;;;;;;;20.92;8.80;;;-0.30;99.90;;;;;;4903748;29;20700;-70
2023/12/05 07:51:49;;;;;;;10.02;7.55;;;-0.30;99.90;;;;;;4899244;29;20249;-70
2023/12/05 07:54:17;;;;;;;7.40;6.82;;;-0.30;99.90;;;;;;4903294;29;20207;-70
2023/12/05 07:56:43;;;;;;;15.57;11.32;;;-0.30;99.90;;;;;;4906904;29;20589;-70
2023/12/05 07:59:10;;;;;;;11.68;8.80;;;-0.30;99.90;;;;;;4909636;29;20214;-70
2023/12/05 08:01:37;;;;;;;14.90;12.50;;;-0.30;99.90;;;;;;4906552;29;20234;-70
2023/12/05 08:04:03;;;;;;;10.45;8.30;;;-0.30;99.90;;;;;;4901915;29;20680;-71
2023/12/05 08:06:30;;;;;;;21.67;12.27;;;-0.30;99.90;;;;;;4907285;29;20231;-71
2023/12/05 08:08:59;;;;;;;16.15;10.43;;;-0.30;99.90;;;;;;4905021;29;20215;-71
2023/12/05 08:11:27;;;;;;;4.72;4.32;;;-0.30;99.90;;;;;;4898274;29;20374;-71
2023/12/05 08:13:54;;;;;;;13.40;10.02;;;-0.20;99.90;;;;;;4901861;29;20214;-71
2023/12/05 08:16:20;;;;;;;20.17;11.40;;;-0.20;99.90;;;;;;4892612;29;20203;-70
2023/12/05 08:18:47;;;;;;;15.65;11.50;;;-0.20;99.90;;;;;;4898877;29;20218;-70
2023/12/05 08:21:14;;;;;;;18.30;11.57;;;-0.20;99.90;;;;;;4896063;29;20235;-69
2023/12/05 08:23:40;;;;;;;17.08;10.38;;;-0.20;99.90;;;;;;4895976;29;20207;-69
2023/12/05 08:26:08;;;;;;;11.73;5.57;;;-0.20;99.90;;;;;;4884933;29;20253;-71
2023/12/05 08:28:37;;;;;;;10.80;8.90;;;-0.20;99.90;;;;;;4903765;29;20221;-70
2023/12/05 08:31:04;;;;;;;11.45;8.88;;;-0.20;99.90;;;;;;4908092;29;20375;-71
2023/12/05 08:33:30;;;;;;;8.23;7.25;;;-0.20;99.90;;;;;;4910110;29;20215;-71
2023/12/05 08:35:57;;;;;;;16.90;9.18;;;-0.10;99.90;;;;;;4899985;29;20214;-70
2023/12/05 08:38:24;;;;;;;14.35;10.85;;;-0.10;99.90;;;;;;4893999;29;20207;-71
2023/12/05 08:40:51;;;;;;;11.07;8.02;;;-0.10;99.90;;;;;;4906629;29;20692;-70
2023/12/05 08:43:18;;;;;;;15.65;7.90;;;0.00;99.90;;;;;;4887608;29;20211;-70
2023/12/05 08:45:46;;;;;;;18.50;13.57;;;0.00;99.90;;;;;;4897790;29;20673;-70
2023/12/05 08:48:13;;;;;;;11.52;7.28;;;0.00;99.90;;;;;;4902228;29;20565;-70
2023/12/05 08:50:41;;;;;;;14.38;10.15;;;0.00;99.90;;;;;;4897143;29;20238;-70
2023/12/05 08:53:08;;;;;;;16.13;10.93;;;0.00;99.90;;;;;;4900743;29;20283;-70
2023/12/05 08:55:35;;;;;;;18.30;9.75;;;0.00;99.90;;;;;;4907343;29;20215;-70
2023/12/05 08:58:02;;;;;;;17.23;11.00;;;0.00;99.90;;;;;;4901947;29;20222;-70
2023/12/05 09:00:28;;;;;;;14.20;9.75;;;0.00;99.90;;;;;;4897702;29;21864;-71
2023/12/05 09:02:57;;;;;;;11.88;9.02;;;0.00;99.90;;;;;;4902939;29;20207;-73
2023/12/05 09:05:24;;;;;;;14.52;11.20;;;0.00;99.90;;;;;;4897351;29;20221;-71
2023/12/05 09:07:51;;;;;;;10.43;7.13;;;0.00;99.90;;;;;;4894937;29;20211;-69
2023/12/05 09:10:17;;;;;;;24.40;7.90;;;0.10;99.90;;;;;;4904149;29;20219;-69
2023/12/05 09:12:44;;;;;;;10.20;9.25;;;0.10;99.90;;;;;;4896678;29;20702;-70
2023/12/05 09:15:11;;;;;;;15.02;9.70;;;0.10;99.90;;;;;;4898199;29;20222;-69
2023/12/05 09:17:38;;;;;;;15.63;9.60;;;0.00;99.90;;;;;;4892670;29;20243;-70
2023/12/05 09:20:07;;;;;;;11.80;6.85;;;0.10;99.90;;;;;;4908120;29;20226;-70
2023/12/05 09:22:33;;;;;;;13.70;8.75;;;0.10;99.90;;;;;;4897505;29;20689;-70
2023/12/05 09:25:00;;;;;;;18.45;12.55;;;0.10;99.90;;;;;;4908062;29;20758;-70
2023/12/05 09:27:27;;;;;;;22.83;11.55;;;0.20;99.90;;;;;;4901609;29;20239;-70
2023/12/05 09:29:53;;;;;;;11.45;7.65;;;0.20;99.90;;;;;;4912044;29;20215;-70
2023/12/05 09:32:20;;;;;;;15.30;10.65;;;0.20;99.90;;;;;;4899600;29;20234;-70
2023/12/05 09:34:47;;;;;;;18.25;11.18;;;0.20;99.90;;;;;;4907034;29;20214;-70
2023/12/05 09:37:15;;;;;;;14.77;8.80;;;0.20;99.90;;;;;;4890549;29;20208;-70
2023/12/05 09:39:42;;;;;;;10.90;9.95;;;0.20;99.90;;;;;;4900312;29;20238;-71
2023/12/05 09:42:11;;;;;;;14.75;10.45;;;0.20;99.90;;;;;;4905785;29;20754;-71
2023/12/05 09:44:38;;;;;;;14.88;11.93;;;0.20;99.90;;;;;;4905929;29;20206;-72
2023/12/05 09:47:08;;;;;;;13.75;8.90;;;0.20;99.90;;;;;;4905651;29;20231;-72
2023/12/05 09:49:35;;;;;;;8.60;7.57;;;0.20;99.90;;;;;;4916033;29;20207;-71
2023/12/05 09:52:02;;;;;;;7.38;6.63;;;0.20;99.90;;;;;;4899705;29;20231;-69
2023/12/05 09:54:33;;;;;;;16.75;9.77;;;0.20;99.90;;;;;;4900601;29;20217;-69
2023/12/05 09:57:01;;;;;;;13.30;10.68;;;0.30;99.90;;;;;;4894319;29;20208;-72
2023/12/05 09:59:27;;;;;;;16.33;10.77;;;0.30;99.90;;;;;;4896427;29;20223;-70
2023/12/05 10:02:00;;;;;;;13.25;9.85;;;0.30;99.90;;;;;;4902753;29;20238;-73
2023/12/05 10:04:29;;;;;;;16.38;9.70;;;0.30;99.90;;;;;;4902306;29;20243;-71
2023/12/05 10:06:58;;;;;;;21.67;11.00;;;0.40;99.90;;;;;;4902885;29;20275;-70
2023/12/05 10:09:26;;;;;;;9.63;7.50;;;0.50;99.90;;;;;;4902746;29;20262;-72
2023/12/05 10:11:55;;;;;;;19.40;12.93;;;0.70;99.90;;;;;;4893299;29;20262;-71
2023/12/05 10:14:22;;;;;;;10.70;6.47;;;0.80;99.90;;;;;;4894302;29;20212;-70
2023/12/05 10:16:50;;;;;;;24.17;13.45;;;0.80;99.90;;;;;;4896216;29;20212;-70
2023/12/05 10:19:17;;;;;;;13.98;9.70;;;0.90;99.90;;;;;;4905749;29;20211;-72
2023/12/05 10:21:44;;;;;;;17.17;10.02;;;0.90;99.90;;;;;;4901378;29;20242;-70
2023/12/05 10:24:11;;;;;;;18.98;9.50;;;0.90;99.90;;;;;;4906643;29;20206;-69
2023/12/05 10:26:45;;;;;;;18.35;9.48;;;0.80;99.90;;;;;;4905317;29;20234;-72
2023/12/05 10:29:14;;;;;;;19.98;10.25;;;0.90;99.90;;;;;;4897998;29;20314;-71
2023/12/05 10:31:41;;;;;;;8.48;6.38;;;0.90;99.90;;;;;;4901894;29;20238;-70
2023/12/05 10:34:08;;;;;;;9.40;5.95;;;0.90;99.90;;;;;;4909473;29;20216;-70
2023/12/05 10:36:35;;;;;;;15.65;8.50;;;0.80;99.90;;;;;;4904170;29;20308;-70
2023/12/05 10:39:03;;;;;;;9.98;8.18;;;0.80;99.90;;;;;;4909671;29;20211;-71
2023/12/05 10:41:30;;;;;;;10.95;7.68;;;0.70;99.90;;;;;;4894728;29;20231;-71
2023/12/05 10:43:57;;;;;;;10.02;7.90;;;0.70;99.90;;;;;;4896519;29;20210;-71
2023/12/05 10:46:26;;;;;;;15.30;9.90;;;0.70;99.90;;;;;;4901211;29;20238;-71
2023/12/05 10:48:54;;;;;;;9.90;8.65;;;0.60;99.90;;;;;;4894599;29;20303;-71
2023/12/05 10:51:24;;;;;;;18.52;9.55;;;0.60;99.90;;;;;;4901477;29;20230;-71
2023/12/05 10:53:51;;;;;;;6.85;5.88;;;0.60;99.90;;;;;;4896638;29;20297;-71
2023/12/05 10:56:19;;;;;;;12.13;9.10;;;0.60;99.90;;;;;;4898888;29;20200;-69
2023/12/05 10:58:48;;;;;;;14.07;8.48;;;0.60;99.90;;;;;;4897771;29;20214;-71
2023/12/05 11:01:17;;;;;;;14.77;8.82;;;0.60;99.90;;;;;;4895612;29;20243;-69
2023/12/05 11:03:45;;;;;;;13.45;7.82;;;0.60;99.90;;;;;;4896563;29;20305;-70
2023/12/05 11:06:12;;;;;;;6.13;5.07;;;0.60;99.90;;;;;;4891924;29;20207;-70
2023/12/05 11:08:38;;;;;;;9.77;8.35;;;0.60;99.90;;;;;;4892852;29;20252;-70
2023/12/05 11:11:06;;;;;;;21.17;12.40;;;0.60;99.90;;;;;;4893166;29;20231;-71
2023/12/05 11:13:36;;;;;;;11.07;5.60;;;0.70;99.90;;;;;;4889461;29;20647;-72
2023/12/05 11:16:09;;;;;;;17.75;11.38;;;0.70;99.90;;;;;;4892415;29;20215;-72
2023/12/05 11:18:39;;;;;;;15.52;10.57;;;0.70;99.90;;;;;;4893914;29;20257;-70
2023/12/05 11:21:24;;;;;;;8.60;6.15;;;0.80;99.90;;;;;;4894717;29;20231;-71
2023/12/05 11:24:15;;;;;;;12.23;7.72;;;0.80;99.90;;;;;;4890884;29;20301;-71
2023/12/05 11:27:05;;;;;;;16.10;7.63;;;0.80;99.90;;;;;;4891824;29;20223;-70
2023/12/05 11:29:47;;;;;;;8.80;5.55;;;0.70;99.90;;;;;;4887376;29;20218;-70
2023/12/05 11:32:18;;;;;;;11.05;8.60;;;0.60;99.90;;;;;;4891184;29;20246;-70
2023/12/05 11:35:04;;;;;;;8.23;6.05;;;0.60;99.90;;;;;;4893970;29;20689;-72
2023/12/05 11:37:51;;;;;;;10.52;8.90;;;0.70;99.90;;;;;;4889578;29;20222;-70
2023/12/05 11:40:19;;;;;;;19.35;8.35;;;0.60;99.90;;;;;;4889771;29;20303;-69
2023/12/05 11:43:05;;;;;;;7.65;6.72;;;0.60;99.90;;;;;;4888357;29;20211;-71
2023/12/05 11:45:32;;;;;;;10.48;7.43;;;0.60;99.90;;;;;;4893858;29;20211;-70
2023/12/05 11:47:59;;;;;;;8.35;7.55;;;0.60;99.90;;;;;;4892964;29;20283;-71
2023/12/05 11:50:26;;;;;;;13.73;8.93;;;0.60;99.90;;;;;;4895666;29;20295;-71
2023/12/05 11:52:57;;;;;;;12.20;7.40;;;0.60;99.90;;;;;;4895014;29;20241;-70
2023/12/05 11:55:23;;;;;;;12.05;8.50;;;0.60;99.90;;;;;;4894358;29;20218;-70
2023/12/05 11:57:50;;;;;;;15.25;9.68;;;0.60;99.90;;;;;;4894353;29;20211;-70
2023/12/05 12:00:17;;;;;;;11.07;7.13;;;0.60;99.90;;;;;;4894886;29;20212;-69
2023/12/05 12:02:48;;;;;;;8.35;5.47;;;0.70;99.90;;;;;;4895071;29;20365;-69
2023/12/05 12:05:16;;;;;;;14.75;9.65;;;0.70;99.90;;;;;;4895650;29;20825;-69
2023/12/05 12:07:50;;;;;;;12.43;8.32;;;0.70;99.90;;;;;;4890455;29;20231;-69
2023/12/05 12:10:18;;;;;;;16.45;10.38;;;0.70;99.90;;;;;;4891795;29;20299;-69
2023/12/05 12:12:45;;;;;;;12.50;9.68;;;0.70;99.90;;;;;;4885709;29;20598;-71
2023/12/05 12:15:12;;;;;;;12.57;9.18;;;0.70;99.90;;;;;;4891046;29;20214;-70
2023/12/05 12:17:42;;;;;;;9.18;7.88;;;0.70;99.90;;;;;;4891324;29;20210;-72
2023/12/05 12:20:12;;;;;;;16.75;10.15;;;0.70;99.90;;;;;;4894396;29;20222;-71
2023/12/05 12:22:38;;;;;;;12.73;10.65;;;0.70;99.90;;;;;;4893405;29;20211;-69
2023/12/05 12:25:09;;;;;;;9.88;7.40;;;0.70;99.90;;;;;;4890678;29;20208;-70
2023/12/05 12:27:38;;;;;;;20.63;12.35;;;0.70;99.90;;;;;;4893640;29;20323;-71
2023/12/05 12:30:07;;;;;;;12.82;8.07;;;0.70;99.90;;;;;;4891032;29;20214;-71
2023/12/05 12:32:34;;;;;;;16.70;9.52;;;0.70;99.90;;;;;;4894786;29;20234;-70
2023/12/05 12:35:01;;;;;;;15.40;9.43;;;0.80;99.90;;;;;;4892793;29;20645;-71
2023/12/05 12:37:28;;;;;;;7.03;5.82;;;0.80;99.90;;;;;;4892437;29;20231;-71
2023/12/05 12:39:55;;;;;;;16.60;10.23;;;0.80;99.90;;;;;;4896367;29;20214;-70
2023/12/05 12:42:22;;;;;;;20.95;9.73;;;0.80;99.90;;;;;;4891106;29;20702;-70
2023/12/05 12:44:52;;;;;;;12.00;8.70;;;0.80;99.90;;;;;;4891522;29;20239;-71
2023/12/05 12:47:19;;;;;;;13.73;9.05;;;0.80;99.90;;;;;;4890554;29;20318;-70
2023/12/05 12:49:46;;;;;;;7.45;6.55;;;0.80;99.90;;;;;;4891654;29;20866;-71
2023/12/05 12:52:12;;;;;;;13.13;8.10;;;0.80;99.90;;;;;;4893554;29;20227;-70
2023/12/05 12:54:40;;;;;;;17.20;6.53;;;0.80;99.90;;;;;;4896930;29;20207;-71
2023/12/05 12:57:07;;;;;;;15.35;7.85;;;0.80;99.90;;;;;;4895124;29;20214;-70
2023/12/05 12:59:34;;;;;;;9.20;5.60;;;0.80;99.90;;;;;;4896258;29;20710;-71
2023/12/05 13:02:02;;;;;;;7.72;7.03;;;0.70;99.90;;;;;;4891728;29;20247;-72
2023/12/05 13:04:34;;;;;;;18.23;10.93;;;0.70;99.90;;;;;;4895353;29;20654;-70
2023/12/05 13:07:01;;;;;;;13.23;8.38;;;0.80;99.90;;;;;;4893495;29;20714;-72
2023/12/05 13:09:28;;;;;;;15.07;8.63;;;0.80;99.90;;;;;;4898119;29;20210;-71
2023/12/05 13:11:55;;;;;;;15.68;9.77;;;0.80;99.90;;;;;;4894751;29;20613;-71
2023/12/05 13:14:22;;;;;;;9.95;6.95;;;0.80;99.90;;;;;;4896890;29;20578;-71
2023/12/05 13:16:49;;;;;;;14.38;9.82;;;0.90;99.90;;;;;;4896533;29;20661;-70
2023/12/05 13:19:26;;;;;;;22.08;10.43;;;0.80;99.90;;;;;;4897416;29;20216;-71
2023/12/05 13:21:53;;;;;;;10.07;8.38;;;0.80;99.90;;;;;;4893136;29;20235;-70
2023/12/05 13:24:21;;;;;;;12.30;7.82;;;0.80;99.90;;;;;;4901655;29;20211;-70
2023/12/05 13:26:48;;;;;;;12.48;8.00;;;0.80;99.90;;;;;;4897452;29;20322;-71
2023/12/05 13:29:14;;;;;;;6.25;5.57;;;0.80;99.90;;;;;;4898570;29;20681;-70
2023/12/05 13:31:41;;;;;;;8.38;7.13;;;0.70;99.90;;;;;;4894003;29;20231;-71
2023/12/05 13:34:08;;;;;;;8.98;7.55;;;0.70;99.90;;;;;;4897710;29;20222;-70
2023/12/05 13:36:37;;;;;;;13.57;9.85;;;0.80;99.90;;;;;;4892794;29;20592;-70
2023/12/05 13:39:04;;;;;;;15.57;11.30;;;0.80;99.90;;;;;;4894513;29;20204;-73
2023/12/05 13:41:30;;;;;;;14.15;9.45;;;0.80;99.90;;;;;;4897532;29;20233;-69
2023/12/05 13:43:57;;;;;;;12.25;8.77;;;0.80;99.90;;;;;;4898249;29;20226;-72
2023/12/05 13:46:24;;;;;;;10.05;8.13;;;0.80;99.90;;;;;;4897408;29;20222;-73
2023/12/05 13:48:51;;;;;;;11.52;7.18;;;0.70;99.90;;;;;;4897740;29;20231;-72
2023/12/05 13:51:18;;;;;;;15.35;8.68;;;0.80;99.90;;;;;;4896336;29;20227;-71
2023/12/05 13:53:46;;;;;;;10.52;6.97;;;0.80;99.90;;;;;;4892619;29;20381;-70
2023/12/05 13:56:13;;;;;;;14.13;8.65;;;0.80;99.90;;;;;;4892340;29;20622;-70
2023/12/05 13:58:42;;;;;;;9.48;7.88;;;0.80;99.90;;;;;;4891544;29;20208;-69
2023/12/05 14:01:09;;;;;;;14.77;9.85;;;0.70;99.90;;;;;;4897702;29;20338;-69
2023/12/05 14:03:36;;;;;;;7.57;5.63;;;0.80;99.90;;;;;;4898719;29;20674;-71
2023/12/05 14:06:03;;;;;;;13.18;10.40;;;0.80;99.90;;;;;;4899528;29;20250;-70
2023/12/05 14:08:29;;;;;;;10.73;7.43;;;0.80;99.90;;;;;;4895666;29;20234;-71
2023/12/05 14:10:57;;;;;;;14.23;9.45;;;0.70;99.90;;;;;;4894508;29;20379;-72
2023/12/05 14:13:24;;;;;;;16.75;8.43;;;0.70;99.90;;;;;;4900252;29;20557;-70
2023/12/05 14:15:51;;;;;;;12.63;8.27;;;0.70;99.90;;;;;;4896662;29;20234;-71
2023/12/05 14:18:18;;;;;;;18.15;10.00;;;0.70;99.90;;;;;;4898436;29;20215;-70
2023/12/05 14:20:44;;;;;;;11.93;7.95;;;0.70;99.90;;;;;;4899848;29;20244;-71
2023/12/05 14:23:12;;;;;;;13.68;10.48;;;0.70;99.90;;;;;;4896921;29;20212;-71
2023/12/05 14:25:37;;;;;;;13.07;10.25;;;0.70;99.90;;;;;;4893992;29;20207;-71
2023/12/05 14:28:05;;;;;;;18.47;11.87;;;0.70;99.90;;;;;;4886123;29;20704;-72
2023/12/05 14:30:32;;;;;;;17.15;10.00;;;0.80;99.90;;;;;;4889316;29;20323;-72
2023/12/05 14:32:59;;;;;;;11.43;8.02;;;0.70;99.90;;;;;;4888512;29;20682;-72
2023/12/05 14:35:25;;;;;;;12.40;8.40;;;0.80;99.90;;;;;;4894050;29;20236;-70
2023/12/05 14:37:53;;;;;;;10.98;8.10;;;0.70;99.90;;;;;;4897229;29;20219;-73
2023/12/05 14:40:20;;;;;;;20.58;10.63;;;0.70;99.90;;;;;;4899736;29;20703;-72
2023/12/05 14:42:48;;;;;;;14.00;9.63;;;0.80;99.90;;;;;;4892280;29;20216;-73
2023/12/05 14:45:16;;;;;;;10.32;8.07;;;0.80;99.90;;;;;;4890557;29;20250;-70
2023/12/05 14:47:43;;;;;;;14.80;9.75;;;0.70;99.90;;;;;;4888788;29;20235;-70
2023/12/05 14:50:10;;;;;;;16.23;10.18;;;0.70;99.90;;;;;;4889192;29;20298;-71
2023/12/05 14:52:37;;;;;;;8.63;7.90;;;0.70;99.90;;;;;;4886784;29;20323;-70
2023/12/05 14:55:04;;;;;;;8.68;5.65;;;0.70;99.90;;;;;;4895431;29;20214;-71
2023/12/05 14:57:31;;;;;;;18.27;8.40;;;0.70;99.90;;;;;;4896726;29;20211;-71
2023/12/05 14:59:58;;;;;;;18.50;10.88;;;0.70;99.90;;;;;;4888238;29;20511;-71
2023/12/05 15:02:26;;;;;;;14.20;9.38;;;0.70;99.90;;;;;;4895185;29;20237;-72
2023/12/05 15:04:55;;;;;;;15.70;10.77;;;0.70;99.90;;;;;;4891335;29;20641;-71
2023/12/05 15:07:22;;;;;;;17.05;10.13;;;0.70;99.90;;;;;;4900437;29;20592;-72
2023/12/05 15:09:48;;;;;;;13.30;11.05;;;0.70;99.90;;;;;;4898882;29;20207;-75
2023/12/05 15:12:15;;;;;;;16.70;9.50;;;0.70;99.90;;;;;;4894770;29;20234;-72
2023/12/05 15:14:42;;;;;;;13.27;9.27;;;0.70;99.90;;;;;;4895056;29;20203;-70
2023/12/05 15:17:09;;;;;;;16.52;9.10;;;0.70;99.90;;;;;;4895433;29;20207;-71
2023/12/05 15:19:37;;;;;;;15.50;9.23;;;0.70;99.90;;;;;;4894680;29;20268;-70
2023/12/05 15:22:04;;;;;;;10.77;7.65;;;0.70;99.90;;;;;;4891746;29;20234;-71
2023/12/05 15:24:31;;;;;;;15.13;10.20;;;0.70;99.90;;;;;;4901615;29;20214;-70
2023/12/05 15:26:59;;;;;;;17.05;10.63;;;0.70;99.90;;;;;;4895480;29;20203;-71
2023/12/05 15:29:26;;;;;;;14.07;10.10;;;0.70;99.90;;;;;;4893537;29;20239;-70
2023/12/05 15:31:52;;;;;;;14.65;9.18;;;0.70;99.90;;;;;;4898108;29;20330;-70
2023/12/05 15:34:19;;;;;;;17.90;11.68;;;0.70;99.90;;;;;;4893127;29;20690;-71
2023/12/05 15:36:47;;;;;;;5.90;5.13;;;0.70;99.90;;;;;;4894255;29;20212;-71
2023/12/05 15:39:16;;;;;;;12.50;9.40;;;0.70;99.90;;;;;;4894141;29;20578;-70
2023/12/05 15:41:43;;;;;;;13.90;10.10;;;0.80;99.90;;;;;;4892979;29;20266;-71
2023/12/05 15:44:10;;;;;;;13.07;8.75;;;0.80;99.90;;;;;;4895094;29;20211;-70
2023/12/05 15:46:36;;;;;;;11.38;9.25;;;0.80;99.90;;;;;;4896999;29;20202;-69
2023/12/05 15:49:03;;;;;;;14.73;10.93;;;0.80;99.90;;;;;;4894983;29;20227;-70
2023/12/05 15:51:34;;;;;;;19.65;10.05;;;0.80;99.90;;;;;;4892002;29;20597;-70
2023/12/05 15:54:02;;;;;;;19.10;10.23;;;0.80;99.90;;;;;;4893515;29;20265;-70
2023/12/05 15:56:29;;;;;;;19.65;10.65;;;0.80;99.90;;;;;;4895244;29;20218;-70
2023/12/05 15:58:57;;;;;;;13.82;9.65;;;0.80;99.90;;;;;;4893407;29;20670;-70
2023/12/05 16:01:24;;;;;;;19.52;9.25;;;0.80;99.90;;;;;;4889608;29;20239;-69
2023/12/05 16:03:51;;;;;;;7.30;6.43;;;0.80;99.90;;;;;;4892549;29;20755;-71
2023/12/05 16:06:18;;;;;;;12.13;9.10;;;0.80;99.90;;;;;;4893441;29;20215;-70
2023/12/05 16:08:44;;;;;;;13.45;9.48;;;0.80;99.90;;;;;;4890149;29;21216;-70
2023/12/05 16:11:15;;;;;;;6.88;4.40;;;0.80;99.90;;;;;;4882523;29;20242;-69
2023/12/05 16:13:42;;;;;;;18.05;10.15;;;0.90;99.90;;;;;;4895919;29;20218;-70
2023/12/05 16:16:09;;;;;;;15.88;9.15;;;0.80;99.90;;;;;;4892105;29;20211;-70
2023/12/05 16:18:36;;;;;;;16.08;9.75;;;0.90;99.90;;;;;;4890154;29;20218;-71
2023/12/05 16:21:05;;;;;;;9.38;8.10;;;0.90;99.90;;;;;;4895668;29;20246;-70
2023/12/05 16:23:32;;;;;;;10.23;8.80;;;0.90;99.90;;;;;;4892607;29;20209;-70
2023/12/05 16:25:59;;;;;;;14.82;9.35;;;0.90;99.90;;;;;;4891485;29;20218;-71
2023/12/05 16:28:27;;;;;;;16.50;10.02;;;0.90;99.90;;;;;;4894130;29;20230;-72
2023/12/05 16:30:54;;;;;;;13.85;9.63;;;0.90;99.90;;;;;;4888630;29;20575;-70
2023/12/05 16:33:21;;;;;;;6.30;5.78;;;0.90;99.90;;;;;;4897372;29;20302;-70
2023/12/05 16:35:47;;;;;;;9.25;7.05;;;0.90;99.90;;;;;;4891262;29;20212;-69
2023/12/05 16:38:14;;;;;;;13.75;8.77;;;0.90;99.90;;;;;;4892342;29;20214;-69
2023/12/05 16:40:43;;;;;;;19.23;10.43;;;0.90;99.90;;;;;;4888838;29;20231;-71
2023/12/05 16:43:10;;;;;;;10.95;7.85;;;0.90;99.90;;;;;;4898870;29;20274;-72
2023/12/05 16:45:38;;;;;;;13.80;6.35;;;1.00;99.90;;;;;;4895322;29;20233;-71
2023/12/05 16:48:05;;;;;;;11.65;7.85;;;0.90;99.90;;;;;;4901878;29;20214;-70
2023/12/05 16:50:32;;;;;;;7.93;5.72;;;1.00;99.90;;;;;;4897417;29;21609;-72
2023/12/05 16:52:58;;;;;;;7.63;6.53;;;1.00;99.90;;;;;;4897201;29;20211;-72
2023/12/05 16:55:27;;;;;;;13.65;9.32;;;1.00;99.90;;;;;;4898195;29;20611;-73
2023/12/05 16:57:54;;;;;;;15.35;9.95;;;1.00;99.90;;;;;;4896491;29;20223;-73
2023/12/05 17:00:21;;;;;;;13.73;8.80;;;1.00;99.90;;;;;;4892118;29;20222;-73
2023/12/05 17:02:49;;;;;;;14.13;7.53;;;1.00;99.90;;;;;;4895332;29;20211;-73
2023/12/05 17:05:15;;;;;;;13.07;8.40;;;1.00;99.90;;;;;;4896446;29;20226;-72
2023/12/05 17:07:43;;;;;;;12.25;9.93;;;1.00;99.90;;;;;;4898360;29;20222;-73
2023/12/05 17:10:10;;;;;;;9.93;8.57;;;1.00;99.90;;;;;;4901409;29;20339;-72
2023/12/05 17:12:36;;;;;;;11.75;10.05;;;1.00;99.90;;;;;;4898515;29;20321;-72
2023/12/05 17:15:04;;;;;;;6.57;6.15;;;1.00;99.90;;;;;;4896024;29;20658;-70
2023/12/05 17:17:33;;;;;;;11.70;9.23;;;1.00;99.90;;;;;;4902182;29;20215;-71
2023/12/05 17:20:01;;;;;;;8.15;7.13;;;1.00;99.90;;;;;;4900773;29;20296;-71
2023/12/05 17:22:30;;;;;;;8.90;7.05;;;1.00;99.90;;;;;;4903181;29;20666;-73
2023/12/05 17:24:56;;;;;;;14.63;10.52;;;1.00;99.90;;;;;;4900852;29;20632;-72
2023/12/05 17:27:24;;;;;;;11.43;8.10;;;1.00;99.90;;;;;;4896220;29;20207;-71
2023/12/05 17:29:51;;;;;;;8.45;7.60;;;1.00;99.90;;;;;;4901958;29;20235;-72
2023/12/05 17:32:25;;;;;;;9.48;7.53;;;1.00;99.90;;;;;;4898786;29;20231;-72
2023/12/05 17:34:51;;;;;;;12.52;8.05;;;1.00;99.90;;;;;;4902618;29;20677;-72
2023/12/05 17:37:20;;;;;;;9.23;8.32;;;1.00;99.90;;;;;;4890254;29;20223;-72
2023/12/05 17:39:46;;;;;;;13.40;8.85;;;1.00;99.90;;;;;;4895294;29;20211;-73
2023/12/05 17:42:13;;;;;;;13.07;7.68;;;1.00;99.90;;;;;;4901309;29;20227;-71
2023/12/05 17:44:40;;;;;;;9.40;6.80;;;1.00;99.90;;;;;;4901462;29;20682;-70
2023/12/05 17:47:07;;;;;;;13.25;5.50;;;1.00;99.90;;;;;;4897904;29;20211;-71